Etusivu
METAR-TAF:

METAR-TAF

Lentoasemat :

Alexandria, Louisiana, Yhdysvallat

Leveyspiiri: 31-23-42N, Pituuspiiri: 092-17-25W, korkeus merenpinnasta: 34 m

Tämänhetkinen sää

Tämä raportti tehtiin 51 minuuttia sitten, kello 22.53 UTC
Tuuli 11 kn lännestä
Lämpötila 25°C
Kosteus 50%
Ilmanpaine 1009 hPa
Näkyvyys: 14.5 km
Muutamia pilviä 4400 ft:n korkeudessa

METAR: KESF 252253Z AUTO 28011KT 9SM FEW044 25/14 A2979 RMK AO2 SLP085 T02500144

Aika: 18:44 (23:44 UTC)


TAF: puuttuu

Säähavainnot ja -ennusteet yli 4000 lentoasemalta (METAR- ja TAF-raportit).

Käytössä olevat sääasemat on merkitty karttaan keltaisilla ja punaisilla pisteillä.

Aseta hiiri pisteen päälle nähdäksesi sääaseman nimen.

Klikkaa sitten nähdäksesi säähavainnot ja -ennusteet.

Kartan vaihtaminen: klikkaa mustalla rastilla varustettuja vihreitä pisteitä, niin voit zoomata sisään; viivalla varustettua vihreää pistettä, niin voit zoomata ulos tai vihreitä nuolia, niin pääset viereisille kartoille.


METAR-TAF: